createdAt,value
2018-04-15T03:00:57.762Z,0.00
2018-04-15T03:01:58.257Z,0.00
2018-04-15T03:02:57.988Z,0.00
2018-04-15T03:03:58.285Z,0.00
2018-04-15T03:04:58.334Z,0.00
2018-04-15T03:05:58.511Z,0.00
2018-04-15T03:06:58.661Z,0.00
2018-04-15T03:07:58.881Z,0.00
2018-04-15T03:08:59.832Z,0.00
2018-04-15T03:09:59.214Z,0.00
2018-04-15T03:10:59.365Z,0.00
2018-04-15T03:11:59.497Z,0.00
2018-04-15T03:12:59.621Z,0.00
2018-04-15T03:13:59.815Z,0.00
2018-04-15T03:14:59.952Z,0.00
2018-04-15T03:16:00.130Z,0.00
2018-04-15T03:17:00.282Z,0.00
2018-04-15T03:18:00.479Z,0.00
2018-04-15T03:19:00.639Z,0.00
2018-04-15T03:20:00.751Z,0.00
2018-04-15T03:21:00.973Z,0.00
2018-04-15T03:22:01.034Z,0.00
2018-04-15T03:23:01.222Z,0.00
2018-04-15T03:24:01.390Z,0.00
2018-04-15T03:25:01.576Z,0.00
2018-04-15T03:26:01.772Z,0.00
2018-04-15T03:27:01.853Z,0.00
2018-04-15T03:28:02.016Z,0.00
2018-04-15T03:29:02.184Z,0.00
2018-04-15T03:30:02.337Z,0.00
2018-04-15T03:31:02.474Z,0.00
2018-04-15T03:32:02.642Z,0.00
2018-04-15T03:33:02.777Z,0.00
2018-04-15T03:34:02.907Z,0.00
2018-04-15T03:35:03.079Z,0.00
2018-04-15T03:36:03.310Z,0.00
2018-04-15T03:37:03.432Z,0.00
2018-04-15T03:38:03.610Z,0.00
2018-04-15T03:39:03.734Z,0.00
2018-04-15T03:40:03.912Z,0.00
2018-04-15T03:41:04.012Z,0.00
2018-04-15T03:42:04.264Z,0.00
2018-04-15T03:43:04.385Z,0.00
2018-04-15T03:44:04.487Z,0.00
2018-04-15T03:45:04.667Z,0.00
2018-04-15T03:46:04.871Z,0.00
2018-04-15T03:47:04.964Z,0.00
2018-04-15T03:48:05.185Z,0.00
2018-04-15T03:49:05.281Z,0.00
2018-04-15T03:50:05.479Z,0.00
2018-04-15T03:51:05.647Z,0.00
2018-04-15T03:52:05.824Z,0.00
2018-04-15T03:53:05.999Z,0.00
2018-04-15T03:54:06.155Z,0.00
2018-04-15T03:55:06.308Z,0.00
2018-04-15T03:56:06.496Z,0.00
2018-04-15T03:57:06.642Z,0.00
2018-04-15T03:58:06.777Z,0.00
2018-04-15T03:59:06.955Z,0.00
2018-04-15T04:00:07.290Z,4.00
2018-04-15T04:01:07.340Z,4.00
2018-04-15T04:02:07.520Z,4.00
2018-04-15T04:03:07.619Z,4.00
2018-04-15T04:04:07.869Z,4.00
2018-04-15T04:05:07.971Z,8.00
2018-04-15T04:06:08.160Z,8.00
2018-04-15T04:07:08.329Z,4.00
2018-04-15T04:08:08.469Z,8.00
2018-04-15T04:09:08.604Z,12.00
2018-04-15T04:10:08.749Z,12.00
2018-04-15T04:11:08.926Z,12.00
2018-04-15T04:12:09.089Z,16.00
2018-04-15T04:13:09.283Z,20.00
2018-04-15T04:14:09.448Z,24.00
2018-04-15T04:15:09.577Z,24.00
2018-04-15T04:16:09.811Z,32.00
2018-04-15T04:17:09.887Z,36.00
2018-04-15T04:18:10.047Z,40.00
2018-04-15T04:19:10.247Z,44.00
2018-04-15T04:20:10.326Z,48.00
2018-04-15T04:21:10.527Z,56.00
2018-04-15T04:22:10.781Z,64.00
2018-04-15T04:23:10.932Z,68.00
2018-04-15T04:24:10.993Z,80.00
2018-04-15T04:25:11.188Z,84.00
2018-04-15T04:26:11.509Z,92.00
2018-04-15T04:27:11.565Z,104.00
2018-04-15T04:28:11.688Z,108.00
2018-04-15T04:29:11.880Z,116.00
2018-04-15T04:30:12.064Z,128.00
2018-04-15T04:31:12.590Z,136.00
2018-04-15T04:32:12.327Z,144.00
2018-04-15T04:33:12.530Z,148.00
2018-04-15T04:34:12.683Z,160.00
2018-04-15T04:35:12.794Z,172.00
2018-04-15T04:36:12.965Z,184.00
2018-04-15T04:37:13.098Z,192.00
2018-04-15T04:38:13.318Z,204.00
2018-04-15T04:39:13.481Z,220.00
2018-04-15T04:40:13.595Z,228.00
2018-04-15T04:41:13.717Z,240.00
2018-04-15T04:42:13.889Z,248.00
2018-04-15T04:43:14.011Z,256.00
2018-04-15T04:44:14.207Z,272.00
2018-04-15T04:45:14.371Z,288.00
2018-04-15T04:46:14.530Z,312.00
2018-04-15T04:47:14.652Z,340.00
2018-04-15T04:48:14.786Z,376.00
2018-04-15T04:49:14.989Z,412.00
2018-04-15T04:50:15.267Z,452.00
2018-04-15T04:51:15.273Z,496.00
2018-04-15T04:52:15.467Z,540.00
2018-04-15T04:53:15.709Z,576.00
2018-04-15T04:54:15.857Z,596.00
2018-04-15T04:55:15.961Z,620.00
2018-04-15T04:56:16.141Z,656.00
2018-04-15T04:57:16.259Z,704.00
2018-04-15T04:58:16.409Z,764.00
2018-04-15T04:59:16.628Z,832.00
2018-04-15T05:00:16.784Z,916.00
2018-04-15T05:01:16.900Z,1016.00
2018-04-15T05:02:17.086Z,1132.00
2018-04-15T05:03:17.257Z,1252.00
2018-04-15T05:04:17.370Z,1340.00
2018-04-15T05:05:17.553Z,1388.00
2018-04-15T05:06:17.704Z,1408.00
2018-04-15T05:07:17.800Z,1396.00
2018-04-15T05:08:18.029Z,1368.00
2018-04-15T05:09:18.158Z,1336.00
2018-04-15T05:10:18.363Z,1316.00
2018-04-15T05:11:18.516Z,1292.00
2018-04-15T05:12:18.698Z,1280.00
2018-04-15T05:13:18.824Z,1288.00
2018-04-15T05:14:18.978Z,1312.00
2018-04-15T05:15:19.098Z,1356.00
2018-04-15T05:16:19.256Z,1416.00
2018-04-15T05:17:19.420Z,1496.00
2018-04-15T05:18:19.578Z,1576.00
2018-04-15T05:19:19.774Z,1648.00
2018-04-15T05:20:19.925Z,1684.00
2018-04-15T05:21:20.034Z,1696.00
2018-04-15T05:22:20.254Z,1708.00
2018-04-15T05:23:20.428Z,1744.00
2018-04-15T05:24:20.565Z,1804.00
2018-04-15T05:25:20.703Z,1888.00
2018-04-15T05:26:20.962Z,2004.00
2018-04-15T05:27:21.149Z,2148.00
2018-04-15T05:28:21.220Z,2296.00
2018-04-15T05:29:21.437Z,2452.00
2018-04-15T05:30:21.608Z,2612.00
2018-04-15T05:31:21.741Z,2792.00
2018-04-15T05:32:21.879Z,2980.00
2018-04-15T05:33:22.039Z,3160.00
2018-04-15T05:34:22.273Z,3344.00
2018-04-15T05:35:22.443Z,3560.00
2018-04-15T05:36:22.580Z,3768.00
2018-04-15T05:37:22.726Z,3920.00
2018-04-15T05:38:22.912Z,4004.00
2018-04-15T05:39:23.025Z,4048.00
2018-04-15T05:40:23.234Z,4112.00
2018-04-15T05:41:23.371Z,4200.00
2018-04-15T05:42:23.557Z,4332.00
2018-04-15T05:43:23.732Z,4504.00
2018-04-15T05:44:23.866Z,4688.00
2018-04-15T05:45:24.071Z,4836.00
2018-04-15T05:46:24.210Z,4928.00
2018-04-15T05:47:24.367Z,4908.00
2018-04-15T05:48:24.487Z,4800.00
2018-04-15T05:49:24.702Z,4680.00
2018-04-15T05:50:24.821Z,4592.00
2018-04-15T05:51:24.964Z,4524.00
2018-04-15T05:52:25.186Z,4452.00
2018-04-15T05:53:25.292Z,4372.00
2018-04-15T05:54:25.556Z,4284.00
2018-04-15T05:55:25.670Z,4212.00
2018-04-15T05:56:25.798Z,4152.00
2018-04-15T05:57:25.990Z,4096.00
2018-04-15T05:58:26.349Z,4044.00
2018-04-15T05:59:26.554Z,4020.00
2018-04-15T06:00:26.516Z,4008.00
2018-04-15T06:01:26.704Z,4012.00
2018-04-15T06:02:26.794Z,4004.00
2018-04-15T06:03:26.988Z,4036.00
2018-04-15T06:04:27.113Z,4080.00
2018-04-15T06:05:27.980Z,4152.00
2018-04-15T06:06:27.512Z,4244.00
2018-04-15T06:07:27.684Z,4348.00
2018-04-15T06:08:27.822Z,4432.00
2018-04-15T06:09:28.043Z,4516.00
2018-04-15T06:10:28.160Z,4604.00
2018-04-15T06:11:28.297Z,4672.00
2018-04-15T06:12:28.456Z,4736.00
2018-04-15T06:13:28.658Z,4788.00
2018-04-15T06:14:28.790Z,4812.00
2018-04-15T06:15:28.959Z,4824.00
2018-04-15T06:16:29.058Z,4820.00
2018-04-15T06:17:29.329Z,4796.00
2018-04-15T06:18:29.419Z,4756.00
2018-04-15T06:19:29.616Z,4712.00
2018-04-15T06:20:29.813Z,4696.00
2018-04-15T06:21:29.951Z,4736.00
2018-04-15T06:22:30.073Z,4816.00
2018-04-15T06:23:30.292Z,4916.00
2018-04-15T06:24:30.455Z,5016.00
2018-04-15T06:25:30.617Z,5108.00
2018-04-15T06:26:30.783Z,5224.00
2018-04-15T06:27:30.941Z,5384.00
2018-04-15T06:28:31.101Z,5576.00
2018-04-15T06:29:31.255Z,5776.00
2018-04-15T06:30:31.402Z,5980.00
2018-04-15T06:31:31.554Z,6168.00
2018-04-15T06:32:31.748Z,6400.00
2018-04-15T06:33:31.896Z,6692.00
2018-04-15T06:34:32.080Z,6988.00
2018-04-15T06:35:32.193Z,7236.00
2018-04-15T06:36:32.343Z,7444.00
2018-04-15T06:37:32.484Z,7624.00
2018-04-15T06:38:32.694Z,7764.00
2018-04-15T06:39:32.816Z,7968.00
2018-04-15T06:40:33.004Z,8152.00
2018-04-15T06:41:33.183Z,8312.00
2018-04-15T06:42:33.354Z,8584.00
2018-04-15T06:43:33.552Z,8832.00
2018-04-15T06:44:33.728Z,8948.00
2018-04-15T06:45:33.868Z,8984.00
2018-04-15T06:46:34.033Z,9064.00
2018-04-15T06:47:34.168Z,9028.00
2018-04-15T06:48:34.349Z,8764.00
2018-04-15T06:49:34.481Z,8400.00
2018-04-15T06:50:34.675Z,8104.00
2018-04-15T06:51:34.815Z,7888.00
2018-04-15T06:52:34.994Z,7756.00
2018-04-15T06:53:35.199Z,7700.00
2018-04-15T06:54:35.278Z,7716.00
2018-04-15T06:55:35.490Z,7628.00
2018-04-15T06:56:35.653Z,7604.00
2018-04-15T06:57:35.829Z,7592.00
2018-04-15T06:58:35.982Z,7620.00
2018-04-15T06:59:36.103Z,7644.00
2018-04-15T07:00:36.261Z,7636.00
2018-04-15T07:01:36.585Z,7540.00
2018-04-15T07:02:36.672Z,7316.00
2018-04-15T07:03:36.771Z,7008.00
2018-04-15T07:04:36.997Z,6636.00
2018-04-15T07:05:37.128Z,6256.00
2018-04-15T07:06:37.251Z,5952.00
2018-04-15T07:07:37.414Z,5736.00
2018-04-15T07:08:37.615Z,5588.00
2018-04-15T07:09:37.806Z,5444.00
2018-04-15T07:10:37.893Z,5264.00
2018-04-15T07:11:38.064Z,5032.00
2018-04-15T07:12:38.192Z,4836.00
2018-04-15T07:13:38.446Z,4712.00
2018-04-15T07:14:38.609Z,4668.00
2018-04-15T07:15:38.790Z,4676.00
2018-04-15T07:16:38.917Z,4692.00
2018-04-15T07:17:39.133Z,4708.00
2018-04-15T07:18:39.256Z,4736.00
2018-04-15T07:19:39.418Z,4768.00
2018-04-15T07:20:39.604Z,4784.00
2018-04-15T07:21:39.774Z,4788.00
2018-04-15T07:22:39.887Z,4780.00
2018-04-15T07:23:40.067Z,4776.00
2018-04-15T07:24:40.190Z,4800.00
2018-04-15T07:25:40.352Z,4892.00
2018-04-15T07:26:40.562Z,5036.00
2018-04-15T07:27:40.698Z,5216.00
2018-04-15T07:28:40.947Z,5420.00
2018-04-15T07:29:41.074Z,5620.00
2018-04-15T07:30:41.186Z,5788.00
2018-04-15T07:31:41.364Z,5952.00
2018-04-15T07:32:41.527Z,6136.00
2018-04-15T07:33:41.740Z,6340.00
2018-04-15T07:34:41.830Z,6556.00
2018-04-15T07:35:42.041Z,6844.00
2018-04-15T07:36:42.218Z,7176.00
2018-04-15T07:37:42.357Z,7552.00
2018-04-15T07:38:42.582Z,7908.00
2018-04-15T07:39:42.740Z,8176.00
2018-04-15T07:40:42.900Z,8372.00
2018-04-15T07:41:43.058Z,8544.00
2018-04-15T07:42:43.180Z,8768.00
2018-04-15T07:43:43.417Z,9044.00
2018-04-15T07:44:43.572Z,9260.00
2018-04-15T07:45:43.643Z,9368.00
2018-04-15T07:46:43.889Z,9448.00
2018-04-15T07:47:44.028Z,9456.00
2018-04-15T07:48:44.161Z,9388.00
2018-04-15T07:49:44.389Z,9304.00
2018-04-15T07:50:44.510Z,9388.00
2018-04-15T07:51:44.704Z,9676.00
2018-04-15T07:52:44.801Z,9888.00
2018-04-15T07:53:44.995Z,9888.00
2018-04-15T07:54:45.174Z,9600.00
2018-04-15T07:55:45.308Z,9052.00
2018-04-15T07:56:45.539Z,8404.00
2018-04-15T07:57:45.729Z,8000.00
2018-04-15T07:58:45.855Z,7844.00
2018-04-15T07:59:46.035Z,7868.00
2018-04-15T08:00:46.131Z,7964.00
2018-04-15T08:01:46.251Z,8044.00
2018-04-15T08:02:46.487Z,8056.00
2018-04-15T08:03:46.636Z,7952.00
2018-04-15T08:04:46.799Z,7692.00
2018-04-15T08:05:46.927Z,7500.00
2018-04-15T08:06:47.117Z,7412.00
2018-04-15T08:07:47.375Z,7388.00
2018-04-15T08:08:47.399Z,7356.00
2018-04-15T08:09:47.601Z,7308.00
2018-04-15T08:10:47.745Z,7224.00
2018-04-15T08:11:47.990Z,7140.00
2018-04-15T08:12:48.094Z,7044.00
2018-04-15T08:13:48.258Z,6904.00
2018-04-15T08:14:48.381Z,6740.00
2018-04-15T08:15:48.552Z,6700.00
2018-04-15T08:16:48.686Z,6740.00
2018-04-15T08:17:48.869Z,6804.00
2018-04-15T08:18:49.045Z,6896.00
2018-04-15T08:19:49.198Z,7040.00
2018-04-15T08:20:49.324Z,7204.00
2018-04-15T08:21:49.539Z,7404.00
2018-04-15T08:22:49.781Z,7620.00
2018-04-15T08:23:49.851Z,7832.00
2018-04-15T08:24:50.047Z,8040.00
2018-04-15T08:25:50.229Z,8272.00
2018-04-15T08:26:50.429Z,8484.00
2018-04-15T08:27:50.591Z,8552.00
2018-04-15T08:28:50.795Z,8520.00
2018-04-15T08:29:50.921Z,8496.00
2018-04-15T08:30:51.050Z,8476.00
2018-04-15T08:31:51.299Z,8452.00
2018-04-15T08:32:51.450Z,8480.00
2018-04-15T08:33:51.579Z,8696.00
2018-04-15T08:34:51.744Z,9056.00
2018-04-15T08:35:52.041Z,9632.00
2018-04-15T08:36:52.149Z,10452.00
2018-04-15T08:37:52.282Z,11472.00
2018-04-15T08:38:52.383Z,13480.00
2018-04-15T08:39:52.572Z,14472.00
2018-04-15T08:40:52.769Z,15992.00
2018-04-15T08:41:52.908Z,16408.00
2018-04-15T08:42:53.100Z,18336.00
2018-04-15T08:43:53.246Z,22912.00
2018-04-15T08:44:53.381Z,20864.00
2018-04-15T08:45:53.538Z,24032.00
2018-04-15T08:46:53.748Z,21184.00
2018-04-15T08:47:53.900Z,21536.00
2018-04-15T08:48:54.008Z,31104.00
2018-04-15T08:49:54.219Z,20864.00
2018-04-15T08:50:54.396Z,25120.00
2018-04-15T08:51:54.579Z,20000.00
2018-04-15T08:52:54.725Z,21504.00
2018-04-15T08:53:55.029Z,27200.00
2018-04-15T08:54:55.132Z,25600.00
2018-04-15T08:55:55.279Z,27232.00
2018-04-15T08:56:55.388Z,34656.00
2018-04-15T08:57:55.603Z,27840.00
2018-04-15T08:58:55.784Z,27520.00
2018-04-15T08:59:55.930Z,24544.00
2018-04-15T09:00:56.165Z,20672.00
2018-04-15T09:01:56.287Z,19520.00
2018-04-15T09:02:56.421Z,20160.00
2018-04-15T09:03:56.612Z,20064.00
2018-04-15T09:04:56.772Z,25184.00
2018-04-15T09:05:56.935Z,30592.00
2018-04-15T09:06:57.105Z,24032.00
2018-04-15T09:07:57.271Z,25920.00
2018-04-15T09:08:57.430Z,24512.00
2018-04-15T09:09:58.475Z,26080.00
2018-04-15T09:10:57.792Z,30528.00
2018-04-15T09:11:58.025Z,40128.00
2018-04-15T09:12:58.148Z,33344.00
2018-04-15T09:13:58.377Z,38112.00
2018-04-15T09:14:58.573Z,37184.00
2018-04-15T09:15:58.766Z,35904.00
2018-04-15T09:16:58.851Z,30368.00
2018-04-15T09:17:59.022Z,24896.00
2018-04-15T09:18:59.289Z,25184.00
2018-04-15T09:19:59.487Z,37440.00
2018-04-15T09:20:59.534Z,37728.00
2018-04-15T09:21:59.804Z,36160.00
2018-04-15T09:22:59.966Z,50528.00
2018-04-15T09:24:00.091Z,40064.00
2018-04-15T09:25:00.241Z,45728.00
2018-04-15T09:26:00.463Z,45888.00
2018-04-15T09:27:00.580Z,39616.00
2018-04-15T09:28:00.791Z,33664.00
2018-04-15T09:29:01.003Z,48288.00
2018-04-15T09:30:01.137Z,57696.00
2018-04-15T09:31:01.301Z,39040.00
2018-04-15T09:32:01.509Z,28800.00
2018-04-15T09:33:01.693Z,61056.00
2018-04-15T09:34:01.792Z,61440.00
2018-04-15T09:35:01.971Z,56896.00
2018-04-15T09:36:02.122Z,52768.00
2018-04-15T09:37:02.366Z,63552.00
2018-04-15T09:38:02.528Z,64544.00
2018-04-15T09:39:02.702Z,66880.00
2018-04-15T09:40:02.886Z,68256.00
2018-04-15T09:41:03.061Z,68416.00
2018-04-15T09:42:03.252Z,66848.00
2018-04-15T09:43:03.373Z,66144.00
2018-04-15T09:44:03.523Z,66496.00
2018-04-15T09:45:03.706Z,67040.00
2018-04-15T09:46:03.994Z,67680.00
2018-04-15T09:47:04.015Z,69216.00
2018-04-15T09:48:04.296Z,69696.00
2018-04-15T09:49:04.417Z,70080.00
2018-04-15T09:50:04.666Z,69440.00
2018-04-15T09:51:04.794Z,70976.00
2018-04-15T09:52:04.974Z,74048.00
2018-04-15T09:53:05.118Z,74240.00
2018-04-15T09:54:05.328Z,73536.00
2018-04-15T09:55:05.500Z,72064.00
2018-04-15T09:56:05.664Z,69920.00
2018-04-15T09:57:05.842Z,77024.00
2018-04-15T09:58:05.946Z,72352.00
2018-04-15T09:59:06.144Z,73792.00
2018-04-15T10:00:06.310Z,73920.00
2018-04-15T10:01:06.531Z,76192.00
2018-04-15T10:02:06.675Z,77984.00
2018-04-15T10:03:06.867Z,49696.00
2018-04-15T10:04:07.158Z,43296.00
2018-04-15T10:05:07.300Z,69856.00
2018-04-15T10:06:07.433Z,74272.00
2018-04-15T10:07:07.643Z,74304.00
2018-04-15T10:08:07.797Z,74048.00
2018-04-15T10:09:07.987Z,73952.00
2018-04-15T10:10:08.197Z,74336.00
2018-04-15T10:11:08.391Z,71872.00
2018-04-15T10:12:08.483Z,68320.00
2018-04-15T10:13:08.755Z,68192.00
2018-04-15T10:14:09.001Z,73792.00
2018-04-15T10:15:09.085Z,77152.00
2018-04-15T10:16:09.231Z,73984.00
2018-04-15T10:17:09.456Z,69312.00
2018-04-15T10:18:09.641Z,70848.00
2018-04-15T10:19:09.829Z,71584.00
2018-04-15T10:20:10.094Z,71392.00
2018-04-15T10:21:10.546Z,70752.00
2018-04-15T10:22:10.383Z,73152.00
2018-04-15T10:23:10.596Z,72736.00
2018-04-15T10:24:10.718Z,70656.00
2018-04-15T10:25:10.874Z,69152.00
2018-04-15T10:26:11.114Z,72096.00
2018-04-15T10:27:11.271Z,76512.00
2018-04-15T10:28:11.377Z,75808.00
2018-04-15T10:29:11.565Z,74560.00
2018-04-15T10:30:11.799Z,75392.00
2018-04-15T10:31:12.489Z,75200.00
2018-04-15T10:32:12.209Z,74752.00
2018-04-15T10:33:12.429Z,76000.00
2018-04-15T10:34:12.616Z,77408.00
2018-04-15T10:35:12.824Z,78208.00
2018-04-15T10:36:12.990Z,78656.00
2018-04-15T10:37:13.150Z,72480.00
2018-04-15T10:38:13.365Z,73728.00
2018-04-15T10:39:13.562Z,74432.00
2018-04-15T10:40:13.729Z,76544.00
2018-04-15T10:41:13.873Z,78080.00
2018-04-15T10:42:14.120Z,77216.00
2018-04-15T10:43:14.300Z,75936.00
2018-04-15T10:44:14.480Z,77216.00
2018-04-15T10:45:14.614Z,77376.00
2018-04-15T10:46:14.790Z,76128.00
2018-04-15T10:47:15.196Z,80832.00
2018-04-15T10:48:15.074Z,81888.00
2018-04-15T10:49:15.305Z,79392.00
2018-04-15T10:50:15.456Z,72512.00
2018-04-15T10:51:15.659Z,71776.00
2018-04-15T10:52:15.830Z,79488.00
2018-04-15T10:53:16.032Z,83520.00
2018-04-15T10:54:16.122Z,81312.00
2018-04-15T10:55:16.326Z,76256.00
2018-04-15T10:56:16.523Z,74496.00
2018-04-15T10:57:16.665Z,79104.00
2018-04-15T10:58:16.903Z,84480.00
2018-04-15T10:59:17.151Z,86432.00
2018-04-15T11:00:17.321Z,84928.00
2018-04-15T11:01:17.517Z,80960.00
2018-04-15T11:02:17.677Z,80128.00
2018-04-15T11:03:17.871Z,81120.00
2018-04-15T11:04:18.027Z,81664.00
2018-04-15T11:05:18.205Z,76384.00
2018-04-15T11:06:18.380Z,76864.00
2018-04-15T11:07:18.556Z,78176.00
2018-04-15T11:08:18.755Z,76640.00
2018-04-15T11:09:18.937Z,78592.00
2018-04-15T11:10:19.066Z,81952.00
2018-04-15T11:11:19.269Z,84448.00
2018-04-15T11:12:19.410Z,81984.00
2018-04-15T11:13:19.556Z,77152.00
2018-04-15T11:14:19.777Z,76288.00
2018-04-15T11:15:20.020Z,82336.00
2018-04-15T11:16:20.168Z,86336.00
2018-04-15T11:17:20.302Z,85472.00
2018-04-15T11:18:20.475Z,82112.00
2018-04-15T11:19:20.629Z,82720.00
2018-04-15T11:20:20.857Z,82592.00
2018-04-15T11:21:21.030Z,79328.00
2018-04-15T11:22:21.158Z,83808.00
2018-04-15T11:23:21.676Z,84480.00
2018-04-15T11:24:21.634Z,81632.00
2018-04-15T11:25:21.824Z,82208.00
2018-04-15T11:26:21.964Z,69248.00
2018-04-15T11:27:22.217Z,50464.00
2018-04-15T11:28:22.363Z,41536.00
2018-04-15T11:29:22.552Z,50176.00
2018-04-15T11:30:22.684Z,45728.00
2018-04-15T11:31:22.931Z,42592.00
2018-04-15T11:32:23.084Z,42400.00
2018-04-15T11:33:23.263Z,41056.00
2018-04-15T11:34:23.368Z,42944.00
2018-04-15T11:35:23.584Z,42720.00
2018-04-15T11:36:23.803Z,38112.00
2018-04-15T11:37:24.012Z,38208.00
2018-04-15T11:38:24.224Z,40480.00
2018-04-15T11:39:24.335Z,50048.00
2018-04-15T11:40:24.595Z,43680.00
2018-04-15T11:41:24.734Z,54112.00
2018-04-15T11:42:24.917Z,55776.00
2018-04-15T11:43:25.127Z,45600.00
2018-04-15T11:44:25.379Z,34496.00
2018-04-15T11:45:25.490Z,34336.00
2018-04-15T11:46:25.587Z,36480.00
2018-04-15T11:47:25.868Z,40608.00
2018-04-15T11:48:25.985Z,39456.00
2018-04-15T11:49:26.198Z,40320.00
2018-04-15T11:50:26.332Z,54016.00
2018-04-15T11:51:26.580Z,41376.00
2018-04-15T11:52:26.688Z,57280.00
2018-04-15T11:53:26.840Z,35648.00
2018-04-15T11:54:27.037Z,46624.00
2018-04-15T11:55:27.265Z,37312.00
2018-04-15T11:56:27.444Z,65056.00
2018-04-15T11:57:27.583Z,84928.00
2018-04-15T11:58:27.807Z,95040.00
2018-04-15T11:59:27.991Z,99776.00
2018-04-15T12:00:28.085Z,95616.00
2018-04-15T12:01:28.364Z,93536.00
2018-04-15T12:02:28.529Z,94144.00
2018-04-15T12:03:28.665Z,96064.00
2018-04-15T12:04:28.834Z,95840.00
2018-04-15T12:05:29.008Z,95616.00
2018-04-15T12:06:29.142Z,91872.00
2018-04-15T12:07:29.408Z,91712.00
2018-04-15T12:08:29.512Z,90016.00
2018-04-15T12:09:29.736Z,92192.00
2018-04-15T12:10:29.888Z,92352.00
2018-04-15T12:11:30.070Z,93664.00
2018-04-15T12:12:30.260Z,96320.00
2018-04-15T12:13:30.445Z,99552.00
2018-04-15T12:14:30.690Z,100672.00
2018-04-15T12:15:30.813Z,67072.00
2018-04-15T12:16:31.070Z,103552.00
2018-04-15T12:17:31.198Z,105696.00
2018-04-15T12:18:31.359Z,105664.00
2018-04-15T12:19:31.560Z,42368.00
2018-04-15T12:20:31.735Z,97088.00
2018-04-15T12:21:31.931Z,101120.00
2018-04-15T12:22:32.091Z,43232.00
2018-04-15T12:23:32.322Z,98752.00
2018-04-15T12:24:32.502Z,96768.00
2018-04-15T12:25:32.646Z,101600.00
2018-04-15T12:26:32.823Z,102240.00
2018-04-15T12:27:33.050Z,100640.00
2018-04-15T12:28:33.201Z,98432.00
2018-04-15T12:29:33.457Z,95616.00
2018-04-15T12:30:33.661Z,97216.00
2018-04-15T12:31:33.836Z,98624.00
2018-04-15T12:32:33.981Z,101376.00
2018-04-15T12:33:34.118Z,101536.00
2018-04-15T12:34:34.308Z,100096.00
2018-04-15T12:35:34.518Z,100480.00
2018-04-15T12:36:34.780Z,101056.00
2018-04-15T12:37:34.913Z,96416.00
2018-04-15T12:38:35.039Z,99360.00
2018-04-15T12:39:35.304Z,104480.00
2018-04-15T12:40:35.447Z,103808.00
2018-04-15T12:41:35.651Z,99040.00
2018-04-15T12:42:35.772Z,93280.00
2018-04-15T12:43:35.962Z,94784.00
2018-04-15T12:44:36.154Z,102432.00
2018-04-15T12:45:36.332Z,110304.00
2018-04-15T12:46:36.564Z,112448.00
2018-04-15T12:47:36.642Z,106944.00
2018-04-15T12:48:36.982Z,96896.00
2018-04-15T12:49:37.096Z,89472.00
2018-04-15T12:50:37.351Z,92256.00
2018-04-15T12:51:37.541Z,104160.00
2018-04-15T12:52:37.625Z,112672.00
2018-04-15T12:53:37.825Z,108640.00
2018-04-15T12:54:37.959Z,107488.00
2018-04-15T12:55:38.213Z,103200.00
2018-04-15T12:56:38.365Z,103616.00
2018-04-15T12:57:38.482Z,106496.00
2018-04-15T12:58:38.726Z,107456.00
